sensor_id;sensor_type;location;lat;lon;timestamp;P1;durP1;ratioP1;P2;durP2;ratioP2
67556;SDS011;54387;53.526;49.300;2023-12-28T00:00:19;6.75;;;3.35;;
67556;SDS011;54387;53.526;49.300;2023-12-28T00:02:46;8.32;;;3.97;;
67556;SDS011;54387;53.526;49.300;2023-12-28T00:05:12;11.77;;;5.07;;
67556;SDS011;54387;53.526;49.300;2023-12-28T00:07:39;7.63;;;3.30;;
67556;SDS011;54387;53.526;49.300;2023-12-28T00:10:05;8.23;;;4.28;;
67556;SDS011;54387;53.526;49.300;2023-12-28T00:12:32;8.90;;;4.65;;
67556;SDS011;54387;53.526;49.300;2023-12-28T00:14:59;9.35;;;4.20;;
67556;SDS011;54387;53.526;49.300;2023-12-28T00:17:25;7.20;;;4.32;;
67556;SDS011;54387;53.526;49.300;2023-12-28T00:19:51;6.35;;;3.83;;
67556;SDS011;54387;53.526;49.300;2023-12-28T00:22:18;8.23;;;4.15;;
67556;SDS011;54387;53.526;49.300;2023-12-28T00:24:44;8.68;;;3.95;;
67556;SDS011;54387;53.526;49.300;2023-12-28T00:27:10;8.20;;;4.22;;
67556;SDS011;54387;53.526;49.300;2023-12-28T00:29:37;9.50;;;4.88;;
67556;SDS011;54387;53.526;49.300;2023-12-28T00:32:06;8.45;;;4.35;;
67556;SDS011;54387;53.526;49.300;2023-12-28T00:34:33;9.57;;;4.75;;
67556;SDS011;54387;53.526;49.300;2023-12-28T00:36:59;7.43;;;4.32;;
67556;SDS011;54387;53.526;49.300;2023-12-28T00:39:25;8.23;;;4.57;;
67556;SDS011;54387;53.526;49.300;2023-12-28T00:41:52;9.32;;;4.63;;
67556;SDS011;54387;53.526;49.300;2023-12-28T00:44:18;9.35;;;4.95;;
67556;SDS011;54387;53.526;49.300;2023-12-28T00:46:44;8.48;;;4.55;;
67556;SDS011;54387;53.526;49.300;2023-12-28T00:49:10;10.30;;;4.18;;
67556;SDS011;54387;53.526;49.300;2023-12-28T00:51:36;8.75;;;4.68;;
67556;SDS011;54387;53.526;49.300;2023-12-28T00:54:02;9.95;;;5.28;;
67556;SDS011;54387;53.526;49.300;2023-12-28T00:56:29;10.35;;;5.32;;
67556;SDS011;54387;53.526;49.300;2023-12-28T04:32:10;19.60;;;9.07;;
67556;SDS011;54387;53.526;49.300;2023-12-28T04:34:36;24.73;;;11.52;;
67556;SDS011;54387;53.526;49.300;2023-12-28T04:37:03;27.13;;;11.32;;
67556;SDS011;54387;53.526;49.300;2023-12-28T04:39:31;18.67;;;8.20;;
67556;SDS011;54387;53.526;49.300;2023-12-28T04:41:57;18.23;;;9.32;;
67556;SDS011;54387;53.526;49.300;2023-12-28T04:44:24;20.25;;;9.27;;
67556;SDS011;54387;53.526;49.300;2023-12-28T04:46:51;18.02;;;8.25;;
67556;SDS011;54387;53.526;49.300;2023-12-28T04:49:18;17.52;;;8.07;;
67556;SDS011;54387;53.526;49.300;2023-12-28T04:51:44;20.30;;;9.23;;
67556;SDS011;54387;53.526;49.300;2023-12-28T04:54:11;20.83;;;9.75;;
67556;SDS011;54387;53.526;49.300;2023-12-28T04:56:37;21.13;;;10.57;;
67556;SDS011;54387;53.526;49.300;2023-12-28T04:59:04;27.33;;;10.15;;
67556;SDS011;54387;53.526;49.300;2023-12-28T05:01:31;20.60;;;10.95;;
67556;SDS011;54387;53.526;49.300;2023-12-28T05:03:58;23.48;;;11.30;;
67556;SDS011;54387;53.526;49.300;2023-12-28T05:06:27;24.33;;;10.88;;
67556;SDS011;54387;53.526;49.300;2023-12-28T05:08:54;23.45;;;10.65;;
67556;SDS011;54387;53.526;49.300;2023-12-28T05:11:21;19.35;;;9.15;;
67556;SDS011;54387;53.526;49.300;2023-12-28T05:13:48;17.27;;;8.82;;
67556;SDS011;54387;53.526;49.300;2023-12-28T05:16:14;19.92;;;9.70;;
67556;SDS011;54387;53.526;49.300;2023-12-28T05:18:41;18.40;;;8.50;;
67556;SDS011;54387;53.526;49.300;2023-12-28T05:21:07;17.75;;;8.57;;
67556;SDS011;54387;53.526;49.300;2023-12-28T05:23:34;24.00;;;10.80;;
67556;SDS011;54387;53.526;49.300;2023-12-28T05:26:00;21.77;;;10.40;;
67556;SDS011;54387;53.526;49.300;2023-12-28T05:28:26;23.42;;;11.00;;
67556;SDS011;54387;53.526;49.300;2023-12-28T05:30:52;25.15;;;11.45;;
67556;SDS011;54387;53.526;49.300;2023-12-28T05:33:19;24.95;;;10.77;;
67556;SDS011;54387;53.526;49.300;2023-12-28T05:35:45;25.95;;;11.18;;
67556;SDS011;54387;53.526;49.300;2023-12-28T05:38:11;24.90;;;12.02;;
67556;SDS011;54387;53.526;49.300;2023-12-28T05:40:37;20.83;;;10.02;;
67556;SDS011;54387;53.526;49.300;2023-12-28T05:43:04;27.13;;;12.15;;
67556;SDS011;54387;53.526;49.300;2023-12-28T05:45:30;43.05;;;21.55;;
67556;SDS011;54387;53.526;49.300;2023-12-28T05:47:56;27.52;;;11.13;;
67556;SDS011;54387;53.526;49.300;2023-12-28T05:50:22;26.17;;;12.13;;
67556;SDS011;54387;53.526;49.300;2023-12-28T05:52:49;26.70;;;12.02;;
67556;SDS011;54387;53.526;49.300;2023-12-28T05:55:15;24.88;;;11.02;;
67556;SDS011;54387;53.526;49.300;2023-12-28T05:57:41;26.40;;;12.10;;
67556;SDS011;54387;53.526;49.300;2023-12-28T06:00:07;26.92;;;11.75;;
67556;SDS011;54387;53.526;49.300;2023-12-28T06:02:35;26.80;;;11.13;;
67556;SDS011;54387;53.526;49.300;2023-12-28T06:05:01;23.15;;;11.18;;
67556;SDS011;54387;53.526;49.300;2023-12-28T06:07:27;27.13;;;12.18;;
67556;SDS011;54387;53.526;49.300;2023-12-28T06:09:54;21.95;;;10.93;;
67556;SDS011;54387;53.526;49.300;2023-12-28T06:12:20;18.83;;;10.43;;
67556;SDS011;54387;53.526;49.300;2023-12-28T06:14:46;24.50;;;11.52;;
67556;SDS011;54387;53.526;49.300;2023-12-28T06:17:12;15.55;;;8.43;;
67556;SDS011;54387;53.526;49.300;2023-12-28T06:19:41;21.20;;;9.18;;
67556;SDS011;54387;53.526;49.300;2023-12-28T06:22:07;20.92;;;9.25;;
67556;SDS011;54387;53.526;49.300;2023-12-28T06:24:37;18.10;;;9.02;;
67556;SDS011;54387;53.526;49.300;2023-12-28T06:27:04;18.20;;;7.70;;
67556;SDS011;54387;53.526;49.300;2023-12-28T06:29:31;13.50;;;5.93;;
67556;SDS011;54387;53.526;49.300;2023-12-28T06:31:57;14.07;;;6.07;;
67556;SDS011;54387;53.526;49.300;2023-12-28T06:34:23;17.05;;;7.90;;
67556;SDS011;54387;53.526;49.300;2023-12-28T06:36:51;20.30;;;8.80;;
67556;SDS011;54387;53.526;49.300;2023-12-28T06:39:17;16.38;;;7.75;;
67556;SDS011;54387;53.526;49.300;2023-12-28T06:41:47;16.23;;;7.70;;
67556;SDS011;54387;53.526;49.300;2023-12-28T06:44:14;14.45;;;6.78;;
67556;SDS011;54387;53.526;49.300;2023-12-28T06:46:41;15.85;;;7.65;;
67556;SDS011;54387;53.526;49.300;2023-12-28T06:49:07;13.70;;;6.70;;
67556;SDS011;54387;53.526;49.300;2023-12-28T06:51:33;12.10;;;5.75;;
67556;SDS011;54387;53.526;49.300;2023-12-28T06:53:59;12.18;;;5.78;;
67556;SDS011;54387;53.526;49.300;2023-12-28T06:56:26;14.23;;;5.45;;
67556;SDS011;54387;53.526;49.300;2023-12-28T06:58:52;13.18;;;6.63;;
67556;SDS011;54387;53.526;49.300;2023-12-28T07:01:18;12.48;;;5.85;;
67556;SDS011;54387;53.526;49.300;2023-12-28T07:03:44;19.27;;;7.07;;
67556;SDS011;54387;53.526;49.300;2023-12-28T07:06:11;12.43;;;6.57;;
67556;SDS011;54387;53.526;49.300;2023-12-28T07:08:39;12.85;;;5.28;;
67556;SDS011;54387;53.526;49.300;2023-12-28T07:11:05;10.00;;;4.32;;
67556;SDS011;54387;53.526;49.300;2023-12-28T07:13:31;11.40;;;5.40;;
67556;SDS011;54387;53.526;49.300;2023-12-28T07:15:58;12.48;;;5.47;;
67556;SDS011;54387;53.526;49.300;2023-12-28T07:18:24;9.18;;;4.38;;
67556;SDS011;54387;53.526;49.300;2023-12-28T07:20:50;11.05;;;4.88;;
67556;SDS011;54387;53.526;49.300;2023-12-28T07:23:16;8.98;;;4.63;;
67556;SDS011;54387;53.526;49.300;2023-12-28T07:25:43;8.50;;;4.18;;
67556;SDS011;54387;53.526;49.300;2023-12-28T07:28:09;8.30;;;4.22;;
67556;SDS011;54387;53.526;49.300;2023-12-28T07:30:36;6.80;;;4.00;;
67556;SDS011;54387;53.526;49.300;2023-12-28T07:33:03;11.75;;;5.20;;
67556;SDS011;54387;53.526;49.300;2023-12-28T07:35:29;8.10;;;4.75;;
67556;SDS011;54387;53.526;49.300;2023-12-28T07:37:56;11.40;;;6.07;;
67556;SDS011;54387;53.526;49.300;2023-12-28T07:40:22;9.85;;;5.20;;
67556;SDS011;54387;53.526;49.300;2023-12-28T07:42:48;9.18;;;4.40;;
67556;SDS011;54387;53.526;49.300;2023-12-28T07:45:14;11.02;;;5.93;;
67556;SDS011;54387;53.526;49.300;2023-12-28T07:47:40;8.25;;;4.10;;
67556;SDS011;54387;53.526;49.300;2023-12-28T07:50:07;12.07;;;5.28;;
67556;SDS011;54387;53.526;49.300;2023-12-28T07:52:33;8.85;;;3.47;;
67556;SDS011;54387;53.526;49.300;2023-12-28T07:54:59;11.98;;;5.03;;
67556;SDS011;54387;53.526;49.300;2023-12-28T07:57:25;6.43;;;3.28;;
67556;SDS011;54387;53.526;49.300;2023-12-28T07:59:52;9.88;;;4.50;;
67556;SDS011;54387;53.526;49.300;2023-12-28T08:02:18;7.78;;;4.40;;
67556;SDS011;54387;53.526;49.300;2023-12-28T08:04:44;5.88;;;3.42;;
67556;SDS011;54387;53.526;49.300;2023-12-28T08:07:10;9.07;;;4.32;;
67556;SDS011;54387;53.526;49.300;2023-12-28T08:09:37;8.27;;;4.43;;
67556;SDS011;54387;53.526;49.300;2023-12-28T08:12:03;9.98;;;4.28;;
67556;SDS011;54387;53.526;49.300;2023-12-28T08:14:29;5.97;;;3.08;;
67556;SDS011;54387;53.526;49.300;2023-12-28T08:16:56;9.05;;;4.78;;
67556;SDS011;54387;53.526;49.300;2023-12-28T08:19:22;11.95;;;4.90;;
67556;SDS011;54387;53.526;49.300;2023-12-28T08:21:50;10.48;;;5.15;;
67556;SDS011;54387;53.526;49.300;2023-12-28T08:24:16;11.13;;;4.88;;
67556;SDS011;54387;53.526;49.300;2023-12-28T08:26:43;12.38;;;4.10;;
67556;SDS011;54387;53.526;49.300;2023-12-28T08:29:09;8.57;;;3.95;;
67556;SDS011;54387;53.526;49.300;2023-12-28T08:31:37;9.73;;;4.32;;
67556;SDS011;54387;53.526;49.300;2023-12-28T08:34:03;9.25;;;4.25;;
67556;SDS011;54387;53.526;49.300;2023-12-28T08:36:30;9.43;;;4.50;;
67556;SDS011;54387;53.526;49.300;2023-12-28T08:38:56;11.80;;;5.28;;
67556;SDS011;54387;53.526;49.300;2023-12-28T08:41:23;8.95;;;4.65;;
67556;SDS011;54387;53.526;49.300;2023-12-28T08:43:50;10.27;;;5.03;;
67556;SDS011;54387;53.526;49.300;2023-12-28T08:46:17;10.52;;;4.93;;
67556;SDS011;54387;53.526;49.300;2023-12-28T08:48:44;10.48;;;4.47;;
67556;SDS011;54387;53.526;49.300;2023-12-28T08:51:11;10.07;;;5.25;;
67556;SDS011;54387;53.526;49.300;2023-12-28T08:53:40;8.88;;;5.13;;
67556;SDS011;54387;53.526;49.300;2023-12-28T08:56:16;13.60;;;4.15;;
67556;SDS011;54387;53.526;49.300;2023-12-28T08:58:45;9.73;;;4.47;;
67556;SDS011;54387;53.526;49.300;2023-12-28T09:01:17;14.10;;;6.25;;
67556;SDS011;54387;53.526;49.300;2023-12-28T09:03:43;10.65;;;5.07;;
67556;SDS011;54387;53.526;49.300;2023-12-28T09:06:11;12.73;;;5.20;;
67556;SDS011;54387;53.526;49.300;2023-12-28T09:08:37;11.82;;;4.85;;
67556;SDS011;54387;53.526;49.300;2023-12-28T09:11:06;9.30;;;4.55;;
67556;SDS011;54387;53.526;49.300;2023-12-28T09:13:33;9.52;;;5.25;;
67556;SDS011;54387;53.526;49.300;2023-12-28T09:15:59;9.88;;;4.40;;
67556;SDS011;54387;53.526;49.300;2023-12-28T09:18:25;10.45;;;5.10;;
67556;SDS011;54387;53.526;49.300;2023-12-28T09:20:52;10.10;;;4.88;;
67556;SDS011;54387;53.526;49.300;2023-12-28T09:23:18;20.27;;;7.25;;
67556;SDS011;54387;53.526;49.300;2023-12-28T09:25:44;7.03;;;3.47;;
67556;SDS011;54387;53.526;49.300;2023-12-28T09:28:11;10.13;;;5.47;;
67556;SDS011;54387;53.526;49.300;2023-12-28T09:30:38;8.73;;;4.53;;
67556;SDS011;54387;53.526;49.300;2023-12-28T09:33:04;13.98;;;6.28;;
67556;SDS011;54387;53.526;49.300;2023-12-28T09:35:31;6.75;;;4.03;;
67556;SDS011;54387;53.526;49.300;2023-12-28T09:37:57;13.50;;;5.82;;
67556;SDS011;54387;53.526;49.300;2023-12-28T09:40:24;8.32;;;4.13;;
67556;SDS011;54387;53.526;49.300;2023-12-28T09:48:01;10.20;;;4.25;;
67556;SDS011;54387;53.526;49.300;2023-12-28T09:50:28;8.20;;;3.65;;
67556;SDS011;54387;53.526;49.300;2023-12-28T09:52:55;11.93;;;4.60;;
67556;SDS011;54387;53.526;49.300;2023-12-28T09:55:22;10.43;;;5.22;;
67556;SDS011;54387;53.526;49.300;2023-12-28T09:57:50;9.45;;;3.85;;
67556;SDS011;54387;53.526;49.300;2023-12-28T10:00:17;9.07;;;4.60;;
67556;SDS011;54387;53.526;49.300;2023-12-28T10:02:44;14.48;;;4.38;;
67556;SDS011;54387;53.526;49.300;2023-12-28T10:05:16;8.65;;;4.20;;
67556;SDS011;54387;53.526;49.300;2023-12-28T10:07:43;10.43;;;5.25;;
67556;SDS011;54387;53.526;49.300;2023-12-28T10:10:10;14.90;;;5.97;;
67556;SDS011;54387;53.526;49.300;2023-12-28T10:12:37;10.48;;;6.20;;
67556;SDS011;54387;53.526;49.300;2023-12-28T10:15:04;11.45;;;5.47;;
67556;SDS011;54387;53.526;49.300;2023-12-28T10:17:34;12.57;;;4.90;;
67556;SDS011;54387;53.526;49.300;2023-12-28T10:20:03;11.00;;;4.93;;
67556;SDS011;54387;53.526;49.300;2023-12-28T10:22:32;10.52;;;4.50;;
67556;SDS011;54387;53.526;49.300;2023-12-28T10:25:01;10.93;;;4.57;;
67556;SDS011;54387;53.526;49.300;2023-12-28T10:27:29;14.40;;;6.05;;
67556;SDS011;54387;53.526;49.300;2023-12-28T10:29:56;12.98;;;6.00;;
67556;SDS011;54387;53.526;49.300;2023-12-28T10:32:22;10.20;;;4.65;;
67556;SDS011;54387;53.526;49.300;2023-12-28T10:34:53;10.32;;;4.50;;
67556;SDS011;54387;53.526;49.300;2023-12-28T10:37:24;12.30;;;5.40;;
67556;SDS011;54387;53.526;49.300;2023-12-28T10:39:53;11.68;;;4.68;;
67556;SDS011;54387;53.526;49.300;2023-12-28T10:42:44;9.73;;;4.53;;
67556;SDS011;54387;53.526;49.300;2023-12-28T10:45:16;13.52;;;5.70;;
67556;SDS011;54387;53.526;49.300;2023-12-28T10:47:53;13.13;;;6.07;;
67556;SDS011;54387;53.526;49.300;2023-12-28T10:50:26;8.82;;;4.22;;
67556;SDS011;54387;53.526;49.300;2023-12-28T10:52:56;12.55;;;5.20;;
67556;SDS011;54387;53.526;49.300;2023-12-28T11:01:13;8.32;;;3.97;;
67556;SDS011;54387;53.526;49.300;2023-12-28T11:03:52;13.23;;;5.53;;
67556;SDS011;54387;53.526;49.300;2023-12-28T11:06:34;8.00;;;4.50;;
67556;SDS011;54387;53.526;49.300;2023-12-28T11:09:03;12.48;;;6.15;;
67556;SDS011;54387;53.526;49.300;2023-12-28T11:11:32;11.50;;;4.80;;
67556;SDS011;54387;53.526;49.300;2023-12-28T11:13:59;11.57;;;4.13;;
67556;SDS011;54387;53.526;49.300;2023-12-28T11:16:26;7.50;;;4.40;;
67556;SDS011;54387;53.526;49.300;2023-12-28T11:18:54;10.80;;;4.72;;
67556;SDS011;54387;53.526;49.300;2023-12-28T11:21:21;10.02;;;4.82;;
67556;SDS011;54387;53.526;49.300;2023-12-28T11:23:49;10.32;;;4.80;;
67556;SDS011;54387;53.526;49.300;2023-12-28T11:26:19;8.10;;;3.95;;
67556;SDS011;54387;53.526;49.300;2023-12-28T11:28:47;7.28;;;3.95;;
67556;SDS011;54387;53.526;49.300;2023-12-28T11:31:13;10.35;;;3.95;;
67556;SDS011;54387;53.526;49.300;2023-12-28T11:33:47;7.97;;;4.40;;
67556;SDS011;54387;53.526;49.300;2023-12-28T11:36:21;8.80;;;4.28;;
67556;SDS011;54387;53.526;49.300;2023-12-28T11:38:52;9.43;;;3.95;;
67556;SDS011;54387;53.526;49.300;2023-12-28T11:41:24;10.02;;;3.85;;
67556;SDS011;54387;53.526;49.300;2023-12-28T11:43:53;6.82;;;4.57;;
67556;SDS011;54387;53.526;49.300;2023-12-28T11:46:22;14.60;;;5.13;;
67556;SDS011;54387;53.526;49.300;2023-12-28T11:48:49;7.18;;;4.22;;
67556;SDS011;54387;53.526;49.300;2023-12-28T11:51:15;11.15;;;4.72;;
67556;SDS011;54387;53.526;49.300;2023-12-28T11:53:42;9.63;;;4.55;;
67556;SDS011;54387;53.526;49.300;2023-12-28T11:56:11;7.60;;;3.60;;
67556;SDS011;54387;53.526;49.300;2023-12-28T11:58:41;7.82;;;3.58;;
67556;SDS011;54387;53.526;49.300;2023-12-28T12:01:11;8.95;;;4.55;;
67556;SDS011;54387;53.526;49.300;2023-12-28T12:03:37;9.98;;;5.15;;
67556;SDS011;54387;53.526;49.300;2023-12-28T12:06:04;8.75;;;3.72;;
67556;SDS011;54387;53.526;49.300;2023-12-28T12:08:30;8.63;;;4.03;;
67556;SDS011;54387;53.526;49.300;2023-12-28T12:11:01;8.10;;;3.90;;
67556;SDS011;54387;53.526;49.300;2023-12-28T12:13:30;8.65;;;3.65;;
67556;SDS011;54387;53.526;49.300;2023-12-28T12:15:57;12.45;;;4.97;;
67556;SDS011;54387;53.526;49.300;2023-12-28T12:18:25;9.85;;;5.30;;
67556;SDS011;54387;53.526;49.300;2023-12-28T12:20:51;9.60;;;4.43;;
67556;SDS011;54387;53.526;49.300;2023-12-28T12:23:18;11.52;;;6.07;;
67556;SDS011;54387;53.526;49.300;2023-12-28T12:25:45;9.32;;;4.35;;
67556;SDS011;54387;53.526;49.300;2023-12-28T12:28:11;9.00;;;3.97;;
67556;SDS011;54387;53.526;49.300;2023-12-28T12:30:37;10.00;;;5.03;;
67556;SDS011;54387;53.526;49.300;2023-12-28T12:33:04;12.25;;;4.82;;
67556;SDS011;54387;53.526;49.300;2023-12-28T12:35:30;10.63;;;4.50;;
67556;SDS011;54387;53.526;49.300;2023-12-28T12:37:58;6.78;;;3.63;;
67556;SDS011;54387;53.526;49.300;2023-12-28T12:40:24;8.77;;;4.57;;
67556;SDS011;54387;53.526;49.300;2023-12-28T12:42:51;8.45;;;4.75;;
67556;SDS011;54387;53.526;49.300;2023-12-28T12:45:21;9.32;;;4.20;;
67556;SDS011;54387;53.526;49.300;2023-12-28T12:47:47;7.45;;;3.92;;
67556;SDS011;54387;53.526;49.300;2023-12-28T12:50:15;8.15;;;3.65;;
67556;SDS011;54387;53.526;49.300;2023-12-28T12:52:41;10.18;;;4.10;;
67556;SDS011;54387;53.526;49.300;2023-12-28T12:55:11;8.43;;;3.92;;
67556;SDS011;54387;53.526;49.300;2023-12-28T12:57:41;10.30;;;4.10;;
67556;SDS011;54387;53.526;49.300;2023-12-28T13:00:09;9.40;;;4.05;;
67556;SDS011;54387;53.526;49.300;2023-12-28T13:02:36;12.25;;;3.60;;
67556;SDS011;54387;53.526;49.300;2023-12-28T13:05:03;7.78;;;3.72;;
67556;SDS011;54387;53.526;49.300;2023-12-28T13:07:34;7.20;;;4.10;;
67556;SDS011;54387;53.526;49.300;2023-12-28T13:10:00;6.32;;;2.92;;
67556;SDS011;54387;53.526;49.300;2023-12-28T13:12:29;7.20;;;4.00;;
67556;SDS011;54387;53.526;49.300;2023-12-28T13:14:55;9.05;;;3.60;;
67556;SDS011;54387;53.526;49.300;2023-12-28T13:17:22;7.63;;;4.22;;
67556;SDS011;54387;53.526;49.300;2023-12-28T13:19:48;12.05;;;4.35;;
67556;SDS011;54387;53.526;49.300;2023-12-28T13:22:14;9.38;;;3.45;;
67556;SDS011;54387;53.526;49.300;2023-12-28T13:24:41;8.90;;;4.18;;
67556;SDS011;54387;53.526;49.300;2023-12-28T13:27:08;11.07;;;4.78;;
67556;SDS011;54387;53.526;49.300;2023-12-28T13:29:36;11.90;;;4.07;;
67556;SDS011;54387;53.526;49.300;2023-12-28T13:32:02;11.07;;;3.13;;
67556;SDS011;54387;53.526;49.300;2023-12-28T13:34:29;5.15;;;2.90;;
67556;SDS011;54387;53.526;49.300;2023-12-28T13:36:56;6.90;;;2.83;;
67556;SDS011;54387;53.526;49.300;2023-12-28T13:39:22;6.65;;;3.38;;
67556;SDS011;54387;53.526;49.300;2023-12-28T13:41:49;6.85;;;3.47;;
67556;SDS011;54387;53.526;49.300;2023-12-28T13:44:15;7.82;;;3.38;;
67556;SDS011;54387;53.526;49.300;2023-12-28T13:46:43;10.63;;;4.57;;
67556;SDS011;54387;53.526;49.300;2023-12-28T13:49:09;13.18;;;4.88;;
67556;SDS011;54387;53.526;49.300;2023-12-28T13:51:36;8.90;;;2.78;;
67556;SDS011;54387;53.526;49.300;2023-12-28T13:54:02;6.80;;;3.63;;
67556;SDS011;54387;53.526;49.300;2023-12-28T13:56:29;7.22;;;4.10;;
67556;SDS011;54387;53.526;49.300;2023-12-28T13:58:55;6.45;;;3.30;;
67556;SDS011;54387;53.526;49.300;2023-12-28T14:01:21;5.68;;;2.63;;
67556;SDS011;54387;53.526;49.300;2023-12-28T14:03:48;7.93;;;3.97;;
67556;SDS011;54387;53.526;49.300;2023-12-28T14:06:17;7.35;;;3.92;;
67556;SDS011;54387;53.526;49.300;2023-12-28T14:08:45;7.43;;;3.42;;
67556;SDS011;54387;53.526;49.300;2023-12-28T14:11:11;5.13;;;2.33;;
67556;SDS011;54387;53.526;49.300;2023-12-28T14:13:37;6.68;;;3.42;;
67556;SDS011;54387;53.526;49.300;2023-12-28T14:16:04;7.22;;;3.28;;
67556;SDS011;54387;53.526;49.300;2023-12-28T14:18:30;5.57;;;3.42;;
67556;SDS011;54387;53.526;49.300;2023-12-28T14:20:57;6.22;;;2.38;;
67556;SDS011;54387;53.526;49.300;2023-12-28T14:23:23;5.22;;;2.85;;
67556;SDS011;54387;53.526;49.300;2023-12-28T14:25:50;6.80;;;2.42;;
67556;SDS011;54387;53.526;49.300;2023-12-28T14:28:20;6.50;;;3.00;;
67556;SDS011;54387;53.526;49.300;2023-12-28T14:30:49;10.32;;;3.75;;
67556;SDS011;54387;53.526;49.300;2023-12-28T14:33:16;7.93;;;3.67;;
67556;SDS011;54387;53.526;49.300;2023-12-28T14:35:42;5.03;;;2.28;;
67556;SDS011;54387;53.526;49.300;2023-12-28T14:38:09;8.25;;;2.63;;
67556;SDS011;54387;53.526;49.300;2023-12-28T14:40:36;7.40;;;3.15;;
67556;SDS011;54387;53.526;49.300;2023-12-28T14:43:02;5.22;;;2.67;;
67556;SDS011;54387;53.526;49.300;2023-12-28T14:45:29;7.57;;;3.47;;
67556;SDS011;54387;53.526;49.300;2023-12-28T14:47:55;9.15;;;4.15;;
67556;SDS011;54387;53.526;49.300;2023-12-28T14:50:21;7.70;;;3.10;;
67556;SDS011;54387;53.526;49.300;2023-12-28T14:52:48;7.30;;;3.42;;
67556;SDS011;54387;53.526;49.300;2023-12-28T14:55:14;8.43;;;3.35;;
67556;SDS011;54387;53.526;49.300;2023-12-28T14:57:41;2.92;;;1.83;;
67556;SDS011;54387;53.526;49.300;2023-12-28T15:00:07;6.35;;;2.38;;
67556;SDS011;54387;53.526;49.300;2023-12-28T15:02:35;7.18;;;3.42;;
67556;SDS011;54387;53.526;49.300;2023-12-28T15:05:02;8.55;;;3.75;;
67556;SDS011;54387;53.526;49.300;2023-12-28T15:07:28;5.13;;;2.63;;
67556;SDS011;54387;53.526;49.300;2023-12-28T15:09:55;12.48;;;4.20;;
67556;SDS011;54387;53.526;49.300;2023-12-28T15:12:23;8.50;;;3.58;;
67556;SDS011;54387;53.526;49.300;2023-12-28T15:14:50;9.23;;;4.45;;
67556;SDS011;54387;53.526;49.300;2023-12-28T15:17:17;11.18;;;3.97;;
67556;SDS011;54387;53.526;49.300;2023-12-28T15:19:44;6.85;;;3.42;;
67556;SDS011;54387;53.526;49.300;2023-12-28T15:22:10;6.00;;;3.10;;
67556;SDS011;54387;53.526;49.300;2023-12-28T15:24:37;9.10;;;3.33;;
67556;SDS011;54387;53.526;49.300;2023-12-28T15:27:04;8.35;;;3.13;;
67556;SDS011;54387;53.526;49.300;2023-12-28T15:29:33;9.13;;;3.47;;
67556;SDS011;54387;53.526;49.300;2023-12-28T15:31:59;6.95;;;2.85;;
67556;SDS011;54387;53.526;49.300;2023-12-28T15:34:26;5.03;;;3.03;;
67556;SDS011;54387;53.526;49.300;2023-12-28T15:36:52;6.95;;;3.60;;
67556;SDS011;54387;53.526;49.300;2023-12-28T15:39:18;5.78;;;3.20;;
67556;SDS011;54387;53.526;49.300;2023-12-28T15:41:45;6.78;;;2.90;;
67556;SDS011;54387;53.526;49.300;2023-12-28T15:44:12;7.72;;;2.75;;
67556;SDS011;54387;53.526;49.300;2023-12-28T15:46:40;5.13;;;2.65;;
67556;SDS011;54387;53.526;49.300;2023-12-28T15:49:06;4.05;;;2.22;;
67556;SDS011;54387;53.526;49.300;2023-12-28T15:51:33;9.13;;;3.63;;
67556;SDS011;54387;53.526;49.300;2023-12-28T15:54:00;5.55;;;2.25;;
67556;SDS011;54387;53.526;49.300;2023-12-28T15:56:26;7.72;;;3.00;;
67556;SDS011;54387;53.526;49.300;2023-12-28T15:58:53;3.88;;;2.15;;
67556;SDS011;54387;53.526;49.300;2023-12-28T16:01:19;8.25;;;2.92;;
67556;SDS011;54387;53.526;49.300;2023-12-28T16:03:46;5.07;;;2.25;;
67556;SDS011;54387;53.526;49.300;2023-12-28T16:06:13;5.93;;;2.88;;
67556;SDS011;54387;53.526;49.300;2023-12-28T16:08:39;5.47;;;2.63;;
67556;SDS011;54387;53.526;49.300;2023-12-28T16:11:05;3.22;;;1.63;;
67556;SDS011;54387;53.526;49.300;2023-12-28T16:13:33;6.78;;;2.70;;
67556;SDS011;54387;53.526;49.300;2023-12-28T16:16:00;4.18;;;2.03;;
67556;SDS011;54387;53.526;49.300;2023-12-28T16:18:26;6.53;;;3.25;;
67556;SDS011;54387;53.526;49.300;2023-12-28T16:20:53;5.57;;;2.47;;
67556;SDS011;54387;53.526;49.300;2023-12-28T16:23:20;6.88;;;3.00;;
67556;SDS011;54387;53.526;49.300;2023-12-28T16:25:46;5.88;;;2.08;;
67556;SDS011;54387;53.526;49.300;2023-12-28T16:28:14;4.55;;;2.40;;
67556;SDS011;54387;53.526;49.300;2023-12-28T16:30:40;5.03;;;2.60;;
67556;SDS011;54387;53.526;49.300;2023-12-28T16:33:06;10.05;;;2.40;;
67556;SDS011;54387;53.526;49.300;2023-12-28T16:35:33;5.95;;;2.80;;
67556;SDS011;54387;53.526;49.300;2023-12-28T16:37:59;5.05;;;2.20;;
67556;SDS011;54387;53.526;49.300;2023-12-28T16:40:25;4.32;;;2.25;;
67556;SDS011;54387;53.526;49.300;2023-12-28T16:42:52;6.05;;;2.30;;
67556;SDS011;54387;53.526;49.300;2023-12-28T16:45:18;6.38;;;3.00;;
67556;SDS011;54387;53.526;49.300;2023-12-28T16:47:44;6.00;;;2.65;;
67556;SDS011;54387;53.526;49.300;2023-12-28T16:50:10;7.13;;;2.97;;
67556;SDS011;54387;53.526;49.300;2023-12-28T16:52:36;5.18;;;2.20;;
67556;SDS011;54387;53.526;49.300;2023-12-28T16:55:03;5.60;;;2.22;;
67556;SDS011;54387;53.526;49.300;2023-12-28T16:57:29;4.45;;;2.03;;
67556;SDS011;54387;53.526;49.300;2023-12-28T16:59:55;4.15;;;2.03;;
67556;SDS011;54387;53.526;49.300;2023-12-28T17:02:21;4.30;;;1.90;;
67556;SDS011;54387;53.526;49.300;2023-12-28T17:04:49;5.97;;;1.75;;
67556;SDS011;54387;53.526;49.300;2023-12-28T17:07:16;3.22;;;1.48;;
67556;SDS011;54387;53.526;49.300;2023-12-28T17:09:43;5.20;;;2.28;;
67556;SDS011;54387;53.526;49.300;2023-12-28T17:12:13;5.10;;;2.15;;
67556;SDS011;54387;53.526;49.300;2023-12-28T17:15:10;4.38;;;2.00;;
67556;SDS011;54387;53.526;49.300;2023-12-28T17:17:40;4.80;;;1.83;;
67556;SDS011;54387;53.526;49.300;2023-12-28T17:20:10;5.88;;;2.25;;
67556;SDS011;54387;53.526;49.300;2023-12-28T17:27:58;5.68;;;2.00;;
67556;SDS011;54387;53.526;49.300;2023-12-28T17:30:29;4.90;;;1.85;;
67556;SDS011;54387;53.526;49.300;2023-12-28T17:32:57;4.30;;;1.73;;
67556;SDS011;54387;53.526;49.300;2023-12-28T17:35:25;3.88;;;1.55;;
67556;SDS011;54387;53.526;49.300;2023-12-28T17:37:52;4.25;;;2.53;;
67556;SDS011;54387;53.526;49.300;2023-12-28T17:40:19;3.47;;;1.52;;
67556;SDS011;54387;53.526;49.300;2023-12-28T17:42:46;3.90;;;1.85;;
67556;SDS011;54387;53.526;49.300;2023-12-28T17:45:18;7.15;;;2.05;;
67556;SDS011;54387;53.526;49.300;2023-12-28T17:50:14;5.57;;;1.67;;
67556;SDS011;54387;53.526;49.300;2023-12-28T17:52:41;2.78;;;1.73;;
67556;SDS011;54387;53.526;49.300;2023-12-28T17:55:08;4.30;;;2.20;;
67556;SDS011;54387;53.526;49.300;2023-12-28T17:57:34;2.42;;;1.52;;
67556;SDS011;54387;53.526;49.300;2023-12-28T18:00:00;5.82;;;1.73;;
67556;SDS011;54387;53.526;49.300;2023-12-28T18:02:27;4.05;;;1.33;;
67556;SDS011;54387;53.526;49.300;2023-12-28T18:04:53;3.28;;;1.67;;
67556;SDS011;54387;53.526;49.300;2023-12-28T18:07:19;6.10;;;2.50;;
67556;SDS011;54387;53.526;49.300;2023-12-28T18:09:46;5.20;;;2.00;;
67556;SDS011;54387;53.526;49.300;2023-12-28T18:12:12;5.55;;;2.63;;
67556;SDS011;54387;53.526;49.300;2023-12-28T18:14:38;5.90;;;1.95;;
67556;SDS011;54387;53.526;49.300;2023-12-28T18:17:05;2.58;;;1.45;;
67556;SDS011;54387;53.526;49.300;2023-12-28T18:19:31;4.85;;;2.13;;